CYUX

Hall Beach Airport

Hall Beach, Canada
METAR CYUX 201700Z 31012KT 10SM -SN DRSN OVC048 M12/M13 A2979 RMK SC8 SLP091
Observed Flight Rules
Oct-20 @ 17:00 UTC (26 minutes ago) Visual Flight Rules
Wind Visibility Clouds Conditions
310° at 12 knots 10 miles
  • Overcast at 4,800' AGL
  • Light Snow
  • Low drifting
  • Snow
Temperatures Readings
Current -12°C / 10°F
Dewpoint -13°C / 9°F
Humidity 92%
Altimeter 29.79" Hg
Pressure 1009.1 hPa
Elevation 8
METAR CYUX 201700Z 31012KT 10SM -SN DRSN OVC048 M12/M13 A2979 RMK SC8 SLP091
Observed Flight Rules
Oct-20 @ 17:00 UTC
(26 minutes ago)
VFR
Wind Visibility
310° at 12 knots 10 miles
Clouds
  • Overcast at 4,800' AGL
Conditions
  • Light Snow
  • Low drifting
  • Snow
Temperature Dewpoint
-12°C / 10°F -13°C / 9°F
Humidity Altimeter Pressure
92% 29.79" Hg 1009.1 hPa